createdAt,value
2019-04-03T00:01:05.897Z,15.98
2019-04-03T00:06:09.745Z,16.82
2019-04-03T00:11:13.849Z,16.10
2019-04-03T00:16:18.659Z,17.10
2019-04-03T00:21:22.562Z,16.95
2019-04-03T00:26:26.416Z,14.65
2019-04-03T00:31:30.400Z,16.20
2019-04-03T00:36:34.336Z,15.08
2019-04-03T00:41:38.236Z,15.25
2019-04-03T00:46:42.094Z,14.00
2019-04-03T00:51:45.999Z,14.87
2019-04-03T00:56:49.915Z,15.20
2019-04-03T01:01:54.744Z,15.98
2019-04-03T01:06:59.360Z,13.05
2019-04-03T01:12:03.199Z,14.68
2019-04-03T01:17:07.057Z,14.03
2019-04-03T01:22:11.899Z,13.98
2019-04-03T01:27:15.691Z,14.58
2019-04-03T01:32:19.557Z,15.30
2019-04-03T01:37:23.427Z,15.00
2019-04-03T01:42:27.278Z,15.05
2019-04-03T01:47:31.073Z,17.23
2019-04-03T01:52:34.859Z,19.92
2019-04-03T01:57:38.717Z,21.75
2019-04-03T02:02:42.583Z,20.08
2019-04-03T02:07:46.454Z,17.15
2019-04-03T02:12:51.263Z,16.57
2019-04-03T02:17:55.476Z,19.02
2019-04-03T02:23:00.434Z,17.92
2019-04-03T02:28:04.593Z,16.10
2019-04-03T02:33:08.430Z,16.85
2019-04-03T02:38:12.478Z,15.25
2019-04-03T02:43:16.646Z,15.48
2019-04-03T02:48:20.691Z,15.30
2019-04-03T02:53:24.880Z,14.73
2019-04-03T02:58:29.073Z,14.35
2019-04-03T03:03:33.002Z,15.23
2019-04-03T03:08:40.749Z,16.17
2019-04-03T03:13:44.331Z,16.60
2019-04-03T03:18:48.561Z,16.10
2019-04-03T03:23:55.156Z,15.72
2019-04-03T03:29:14.200Z,16.90
2019-04-03T03:34:05.884Z,16.27
2019-04-03T03:39:10.930Z,17.20
2019-04-03T03:44:16.617Z,17.75
2019-04-03T03:49:21.152Z,16.67
2019-04-03T03:54:26.330Z,16.50
2019-04-03T03:59:30.866Z,16.80
2019-04-03T04:04:34.657Z,15.88
2019-04-03T04:09:38.839Z,17.27
2019-04-03T04:14:42.941Z,16.93
2019-04-03T04:19:47.055Z,17.40
2019-04-03T04:24:50.966Z,17.87
2019-04-03T04:29:55.234Z,17.67
2019-04-03T04:34:59.128Z,17.40
2019-04-03T04:40:03.035Z,16.77
2019-04-03T04:45:07.535Z,17.27
2019-04-03T04:50:11.401Z,17.12
2019-04-03T04:55:15.274Z,16.37
2019-04-03T05:00:19.150Z,17.23
2019-04-03T05:05:23.033Z,18.07
2019-04-03T05:10:26.890Z,16.93
2019-04-03T05:15:30.754Z,21.00
2019-04-03T05:20:35.127Z,18.57
2019-04-03T05:25:39.068Z,17.48
2019-04-03T05:30:43.105Z,20.35
2019-04-03T05:35:46.988Z,24.52
2019-04-03T05:40:50.896Z,27.13
2019-04-03T05:45:54.817Z,24.07
2019-04-03T05:50:58.857Z,21.75
2019-04-03T05:56:02.886Z,19.00
2019-04-03T06:01:07.397Z,21.10
2019-04-03T06:06:14.004Z,20.62
2019-04-03T06:11:20.565Z,19.10
2019-04-03T06:16:24.761Z,17.42
2019-04-03T06:21:28.837Z,16.87
2019-04-03T06:26:33.121Z,17.50
2019-04-03T06:31:37.075Z,16.35
2019-04-03T06:36:41.027Z,14.98
2019-04-03T06:41:44.932Z,14.38
2019-04-03T06:46:48.990Z,15.30
2019-04-03T06:51:53.145Z,15.43
2019-04-03T06:56:57.171Z,17.12
2019-04-03T07:02:01.167Z,14.98
2019-04-03T07:07:05.219Z,15.70
2019-04-03T07:12:09.059Z,16.30
2019-04-03T07:17:14.425Z,19.42
2019-04-03T07:22:18.290Z,18.48
2019-04-03T07:27:22.348Z,17.40
2019-04-03T07:32:26.273Z,16.80
2019-04-03T07:37:30.426Z,18.35
2019-04-03T07:42:34.449Z,17.02
2019-04-03T07:47:38.330Z,20.43
2019-04-03T07:52:42.227Z,19.15
2019-04-03T07:57:46.094Z,20.72
2019-04-03T08:02:50.167Z,19.40
2019-04-03T08:07:54.166Z,16.77
2019-04-03T08:12:59.577Z,18.62
2019-04-03T08:18:03.849Z,15.98
2019-04-03T08:23:07.748Z,17.60
2019-04-03T08:28:11.560Z,16.95
2019-04-03T08:33:18.283Z,18.23
2019-04-03T08:38:21.078Z,17.07
2019-04-03T08:43:24.936Z,16.35
2019-04-03T08:48:28.814Z,15.53
2019-04-03T08:53:32.687Z,15.88
2019-04-03T08:58:36.579Z,15.98
2019-04-03T09:03:40.455Z,14.50
2019-04-03T09:08:44.333Z,14.90
2019-04-03T09:13:48.276Z,14.30
2019-04-03T09:18:52.371Z,15.93
2019-04-03T09:23:58.134Z,16.37
2019-04-03T09:29:02.190Z,14.78
2019-04-03T09:34:06.068Z,15.60
2019-04-03T09:39:13.958Z,17.25
2019-04-03T09:44:17.161Z,16.12
2019-04-03T09:49:21.087Z,14.73
2019-04-03T09:54:27.337Z,15.05
2019-04-03T09:59:30.586Z,14.80
2019-04-03T10:04:34.498Z,15.15
2019-04-03T10:09:39.194Z,14.63
2019-04-03T10:14:43.244Z,15.32
2019-04-03T10:19:47.117Z,15.08
2019-04-03T10:24:50.919Z,16.55
2019-04-03T10:29:56.319Z,14.63
2019-04-03T10:35:02.387Z,15.18
2019-04-03T10:40:08.247Z,14.60
2019-04-03T10:45:12.777Z,14.90
2019-04-03T10:50:17.256Z,15.95
2019-04-03T10:55:21.343Z,15.60
2019-04-03T11:00:28.674Z,14.47
2019-04-03T11:05:31.481Z,15.98
2019-04-03T11:10:35.382Z,15.75
2019-04-03T11:15:39.428Z,16.37
2019-04-03T11:20:43.603Z,16.60
2019-04-03T11:25:47.980Z,17.37
2019-04-03T11:30:53.151Z,16.65
2019-04-03T11:35:57.791Z,15.80
2019-04-03T11:41:11.672Z,16.42
2019-04-03T11:46:07.643Z,15.48
2019-04-03T11:51:13.060Z,16.70
2019-04-03T11:56:17.157Z,15.23
2019-04-03T12:01:21.100Z,14.63
2019-04-03T12:06:25.262Z,14.20
2019-04-03T12:11:29.224Z,15.58
2019-04-03T12:16:33.678Z,16.00
2019-04-03T12:21:38.077Z,15.68
2019-04-03T12:26:43.148Z,15.65
2019-04-03T12:31:47.953Z,13.70
2019-04-03T12:36:51.940Z,15.40
2019-04-03T12:41:56.148Z,14.40
2019-04-03T12:47:00.252Z,14.80
2019-04-03T12:52:04.735Z,15.00
2019-04-03T12:57:10.326Z,16.60
2019-04-03T13:02:14.196Z,15.65
2019-04-03T13:07:18.287Z,15.25
2019-04-03T13:12:26.462Z,20.97
2019-04-03T13:17:27.901Z,18.37
2019-04-03T13:22:31.965Z,16.65
2019-04-03T13:27:36.318Z,18.75
2019-04-03T13:32:41.791Z,14.73
2019-04-03T13:37:46.269Z,16.15
2019-04-03T13:42:50.597Z,14.83
2019-04-03T13:47:54.519Z,14.40
2019-04-03T13:52:58.415Z,14.20
2019-04-03T13:58:02.401Z,15.83
2019-04-03T14:03:06.373Z,15.03
2019-04-03T14:08:12.139Z,14.80
2019-04-03T14:13:15.942Z,13.88
2019-04-03T14:18:20.151Z,14.68
2019-04-03T14:23:24.131Z,13.95
2019-04-03T14:28:28.149Z,13.85
2019-04-03T14:33:41.767Z,12.50
2019-04-03T14:38:37.608Z,11.85
2019-04-03T14:43:41.667Z,11.93
2019-04-03T14:48:45.891Z,12.28
2019-04-03T14:53:51.514Z,12.18
2019-04-03T14:58:57.194Z,13.38
2019-04-03T15:04:01.833Z,16.57
2019-04-03T15:09:08.454Z,15.28
2019-04-03T15:14:12.294Z,17.05
2019-04-03T15:19:16.175Z,15.90
2019-04-03T15:24:20.037Z,13.93
2019-04-03T15:29:23.895Z,11.65
2019-04-03T15:34:28.823Z,13.50
2019-04-03T15:39:33.393Z,14.98
2019-04-03T15:44:37.449Z,21.27
2019-04-03T15:49:41.436Z,13.93
2019-04-03T15:54:45.295Z,17.45
2019-04-03T15:59:51.699Z,18.10
2019-04-03T16:04:55.054Z,19.20
2019-04-03T16:09:59.070Z,17.20
2019-04-03T16:15:03.158Z,18.42
2019-04-03T16:20:07.380Z,15.95
2019-04-03T16:25:11.347Z,14.93
2019-04-03T16:30:16.537Z,19.25
2019-04-03T16:35:20.884Z,16.62
2019-04-03T16:40:25.169Z,18.90
2019-04-03T16:45:30.630Z,24.30
2019-04-03T16:50:34.779Z,31.23
2019-04-03T16:55:38.780Z,32.08
2019-04-03T17:00:42.827Z,29.15
2019-04-03T17:05:47.336Z,34.30
2019-04-03T17:10:51.314Z,23.75
2019-04-03T17:15:55.319Z,31.15
2019-04-03T17:20:59.747Z,39.05
2019-04-03T17:26:04.127Z,36.80
2019-04-03T17:31:08.605Z,24.80
2019-04-03T17:36:15.405Z,27.52
2019-04-03T17:41:19.678Z,18.20
2019-04-03T17:46:25.075Z,17.75
2019-04-03T17:51:29.154Z,18.23
2019-04-03T17:56:35.484Z,15.98
2019-04-03T18:01:38.587Z,15.80
2019-04-03T18:06:42.491Z,16.62
2019-04-03T18:11:49.111Z,21.62
2019-04-03T18:16:53.172Z,19.45
2019-04-03T18:21:58.355Z,23.35
2019-04-03T18:27:03.091Z,21.73
2019-04-03T18:32:07.270Z,22.48
2019-04-03T18:37:11.216Z,19.92
2019-04-03T18:42:15.120Z,17.62
2019-04-03T18:47:19.181Z,16.90
2019-04-03T18:52:23.274Z,15.95
2019-04-03T18:57:27.385Z,18.25
2019-04-03T19:02:32.952Z,18.07
2019-04-03T19:07:36.927Z,16.35
2019-04-03T19:12:43.653Z,16.75
2019-04-03T19:17:58.992Z,15.98
2019-04-03T19:23:02.481Z,16.97
2019-04-03T19:27:58.888Z,16.80
2019-04-03T19:33:02.784Z,15.40
2019-04-03T19:38:06.652Z,15.25
2019-04-03T19:43:10.823Z,17.67
2019-04-03T19:48:14.697Z,23.05
2019-04-03T19:53:18.563Z,25.00
2019-04-03T19:58:22.428Z,29.48
2019-04-03T20:03:33.720Z,24.18
2019-04-03T20:08:37.680Z,16.05
2019-04-03T20:13:41.485Z,16.20
2019-04-03T20:18:45.377Z,17.48
2019-04-03T20:23:49.239Z,18.20
2019-04-03T20:28:53.123Z,21.62
2019-04-03T20:33:56.992Z,25.52
2019-04-03T20:39:00.874Z,28.40
2019-04-03T20:44:04.864Z,24.37
2019-04-03T20:49:08.761Z,19.77
2019-04-03T20:54:12.720Z,19.12
2019-04-03T20:59:16.682Z,19.20
2019-04-03T21:04:20.561Z,16.55
2019-04-03T21:09:24.479Z,19.52
2019-04-03T21:14:28.334Z,20.90
2019-04-03T21:19:32.644Z,23.27
2019-04-03T21:24:36.538Z,22.35
2019-04-03T21:29:42.138Z,17.50
2019-04-03T21:34:46.029Z,17.55
2019-04-03T21:39:50.040Z,18.23
2019-04-03T21:44:53.898Z,17.05
2019-04-03T21:49:57.769Z,15.80
2019-04-03T21:55:04.563Z,14.70
2019-04-03T22:00:12.968Z,14.95
